sensor_id;sensor_type;location;lat;lon;timestamp;P1;durP1;ratioP1;P2;durP2;ratioP2
59876;SDS011;45749;51.140;17.184;2023-02-24T00:02:03;45.80;;;32.30;;
59876;SDS011;45749;51.140;17.184;2023-02-24T00:04:37;54.17;;;35.47;;
59876;SDS011;45749;51.140;17.184;2023-02-24T00:07:03;51.70;;;35.55;;
59876;SDS011;45749;51.140;17.184;2023-02-24T00:09:29;52.30;;;34.63;;
59876;SDS011;45749;51.140;17.184;2023-02-24T00:12:03;52.13;;;36.70;;
59876;SDS011;45749;51.140;17.184;2023-02-24T00:14:34;54.08;;;36.03;;
59876;SDS011;45749;51.140;17.184;2023-02-24T00:17:02;51.65;;;35.30;;
59876;SDS011;45749;51.140;17.184;2023-02-24T00:19:28;57.80;;;36.33;;
59876;SDS011;45749;51.140;17.184;2023-02-24T00:21:57;52.22;;;35.45;;
59876;SDS011;45749;51.140;17.184;2023-02-24T00:24:24;54.55;;;35.85;;
59876;SDS011;45749;51.140;17.184;2023-02-24T00:26:52;56.45;;;35.35;;
59876;SDS011;45749;51.140;17.184;2023-02-24T00:29:23;49.70;;;36.63;;
59876;SDS011;45749;51.140;17.184;2023-02-24T00:31:53;56.10;;;36.97;;
59876;SDS011;45749;51.140;17.184;2023-02-24T00:34:30;49.08;;;34.72;;
59876;SDS011;45749;51.140;17.184;2023-02-24T00:36:57;57.15;;;37.10;;
59876;SDS011;45749;51.140;17.184;2023-02-24T00:39:23;56.72;;;35.72;;
59876;SDS011;45749;51.140;17.184;2023-02-24T00:41:57;49.85;;;33.78;;
59876;SDS011;45749;51.140;17.184;2023-02-24T00:44:28;56.47;;;36.38;;
59876;SDS011;45749;51.140;17.184;2023-02-24T00:47:02;57.13;;;36.90;;
59876;SDS011;45749;51.140;17.184;2023-02-24T00:49:29;54.33;;;36.38;;
59876;SDS011;45749;51.140;17.184;2023-02-24T00:51:56;53.90;;;34.50;;
59876;SDS011;45749;51.140;17.184;2023-02-24T00:54:21;53.38;;;34.13;;
59876;SDS011;45749;51.140;17.184;2023-02-24T00:56:51;57.28;;;37.58;;
59876;SDS011;45749;51.140;17.184;2023-02-24T00:59:16;55.83;;;36.65;;
59876;SDS011;45749;51.140;17.184;2023-02-24T01:01:46;60.10;;;36.85;;
59876;SDS011;45749;51.140;17.184;2023-02-24T01:04:14;54.47;;;37.78;;
59876;SDS011;45749;51.140;17.184;2023-02-24T01:06:43;54.90;;;36.47;;
59876;SDS011;45749;51.140;17.184;2023-02-24T01:09:12;57.72;;;36.50;;
59876;SDS011;45749;51.140;17.184;2023-02-24T01:11:40;52.00;;;35.58;;
59876;SDS011;45749;51.140;17.184;2023-02-24T01:14:26;52.45;;;33.30;;
59876;SDS011;45749;51.140;17.184;2023-02-24T01:16:55;49.83;;;33.95;;
59876;SDS011;45749;51.140;17.184;2023-02-24T01:19:22;45.42;;;30.13;;
59876;SDS011;45749;51.140;17.184;2023-02-24T01:21:54;51.10;;;31.95;;
59876;SDS011;45749;51.140;17.184;2023-02-24T01:24:21;50.50;;;31.77;;
59876;SDS011;45749;51.140;17.184;2023-02-24T01:26:47;51.17;;;32.30;;
59876;SDS011;45749;51.140;17.184;2023-02-24T01:29:13;52.92;;;34.55;;
59876;SDS011;45749;51.140;17.184;2023-02-24T01:31:39;52.40;;;32.20;;
59876;SDS011;45749;51.140;17.184;2023-02-24T01:34:07;51.88;;;35.15;;
59876;SDS011;45749;51.140;17.184;2023-02-24T01:36:35;50.78;;;33.08;;
59876;SDS011;45749;51.140;17.184;2023-02-24T01:39:02;55.00;;;32.78;;
59876;SDS011;45749;51.140;17.184;2023-02-24T01:41:30;47.40;;;31.05;;
59876;SDS011;45749;51.140;17.184;2023-02-24T01:44:03;50.20;;;33.25;;
59876;SDS011;45749;51.140;17.184;2023-02-24T01:46:37;50.75;;;33.50;;
59876;SDS011;45749;51.140;17.184;2023-02-24T01:51:44;57.38;;;36.65;;
59876;SDS011;45749;51.140;17.184;2023-02-24T01:54:17;51.90;;;31.83;;
59876;SDS011;45749;51.140;17.184;2023-02-24T01:56:48;50.38;;;33.38;;
59876;SDS011;45749;51.140;17.184;2023-02-24T01:59:15;46.83;;;31.85;;
59876;SDS011;45749;51.140;17.184;2023-02-24T02:01:42;50.22;;;34.38;;
59876;SDS011;45749;51.140;17.184;2023-02-24T02:06:49;48.35;;;35.03;;
59876;SDS011;45749;51.140;17.184;2023-02-24T02:09:15;52.58;;;35.13;;
59876;SDS011;45749;51.140;17.184;2023-02-24T02:11:41;48.47;;;33.15;;
59876;SDS011;45749;51.140;17.184;2023-02-24T02:14:13;47.05;;;34.30;;
59876;SDS011;45749;51.140;17.184;2023-02-24T02:24:34;46.78;;;32.28;;
59876;SDS011;45749;51.140;17.184;2023-02-24T02:38:17;52.28;;;32.75;;
59876;SDS011;45749;51.140;17.184;2023-02-24T02:44:00;52.25;;;34.50;;
59876;SDS011;45749;51.140;17.184;2023-02-24T02:46:35;56.30;;;33.85;;
59876;SDS011;45749;51.140;17.184;2023-02-24T02:49:18;50.80;;;33.53;;
59876;SDS011;45749;51.140;17.184;2023-02-24T02:51:52;44.50;;;30.30;;
59876;SDS011;45749;51.140;17.184;2023-02-24T02:57:07;50.85;;;33.78;;
59876;SDS011;45749;51.140;17.184;2023-02-24T02:59:38;57.28;;;34.35;;
59876;SDS011;45749;51.140;17.184;2023-02-24T03:02:13;51.78;;;33.40;;
59876;SDS011;45749;51.140;17.184;2023-02-24T03:04:43;51.78;;;32.03;;
59876;SDS011;45749;51.140;17.184;2023-02-24T03:07:16;54.22;;;34.17;;
59876;SDS011;45749;51.140;17.184;2023-02-24T03:09:46;49.00;;;31.60;;
59876;SDS011;45749;51.140;17.184;2023-02-24T03:12:18;54.25;;;34.70;;
59876;SDS011;45749;51.140;17.184;2023-02-24T03:14:55;51.85;;;34.42;;
59876;SDS011;45749;51.140;17.184;2023-02-24T03:17:25;53.20;;;33.53;;
59876;SDS011;45749;51.140;17.184;2023-02-24T03:20:05;51.67;;;33.33;;
59876;SDS011;45749;51.140;17.184;2023-02-24T03:22:45;57.92;;;39.60;;
59876;SDS011;45749;51.140;17.184;2023-02-24T03:25:16;57.13;;;37.60;;
59876;SDS011;45749;51.140;17.184;2023-02-24T03:27:49;52.17;;;34.42;;
59876;SDS011;45749;51.140;17.184;2023-02-24T03:30:22;51.15;;;32.67;;
59876;SDS011;45749;51.140;17.184;2023-02-24T03:33:21;52.47;;;35.10;;
59876;SDS011;45749;51.140;17.184;2023-02-24T03:35:53;51.58;;;35.72;;
59876;SDS011;45749;51.140;17.184;2023-02-24T03:38:25;52.17;;;34.93;;
59876;SDS011;45749;51.140;17.184;2023-02-24T03:40:52;53.83;;;35.30;;
59876;SDS011;45749;51.140;17.184;2023-02-24T03:43:26;55.97;;;35.38;;
59876;SDS011;45749;51.140;17.184;2023-02-24T03:45:54;58.05;;;35.63;;
59876;SDS011;45749;51.140;17.184;2023-02-24T03:48:20;57.47;;;36.97;;
59876;SDS011;45749;51.140;17.184;2023-02-24T03:50:46;54.30;;;33.42;;
59876;SDS011;45749;51.140;17.184;2023-02-24T03:56:15;55.00;;;35.95;;
59876;SDS011;45749;51.140;17.184;2023-02-24T04:04:36;53.35;;;33.55;;
59876;SDS011;45749;51.140;17.184;2023-02-24T04:07:13;50.38;;;33.95;;
59876;SDS011;45749;51.140;17.184;2023-02-24T04:09:46;54.40;;;35.60;;
59876;SDS011;45749;51.140;17.184;2023-02-24T04:14:54;57.78;;;35.55;;
59876;SDS011;45749;51.140;17.184;2023-02-24T04:17:32;53.33;;;32.63;;
59876;SDS011;45749;51.140;17.184;2023-02-24T04:20:02;48.88;;;32.28;;
59876;SDS011;45749;51.140;17.184;2023-02-24T04:22:37;52.38;;;33.78;;
59876;SDS011;45749;51.140;17.184;2023-02-24T04:25:05;51.60;;;31.92;;
59876;SDS011;45749;51.140;17.184;2023-02-24T04:27:37;50.10;;;35.60;;
59876;SDS011;45749;51.140;17.184;2023-02-24T04:30:05;50.45;;;31.20;;
59876;SDS011;45749;51.140;17.184;2023-02-24T04:32:36;50.72;;;31.60;;
59876;SDS011;45749;51.140;17.184;2023-02-24T04:35:03;52.25;;;32.15;;
59876;SDS011;45749;51.140;17.184;2023-02-24T04:37:31;47.00;;;29.02;;
59876;SDS011;45749;51.140;17.184;2023-02-24T04:39:59;55.28;;;35.00;;
59876;SDS011;45749;51.140;17.184;2023-02-24T04:42:25;55.97;;;35.00;;
59876;SDS011;45749;51.140;17.184;2023-02-24T04:44:51;70.97;;;40.75;;
59876;SDS011;45749;51.140;17.184;2023-02-24T04:47:18;63.65;;;40.08;;
59876;SDS011;45749;51.140;17.184;2023-02-24T04:49:43;58.45;;;37.28;;
59876;SDS011;45749;51.140;17.184;2023-02-24T04:52:09;61.42;;;38.67;;
59876;SDS011;45749;51.140;17.184;2023-02-24T04:54:34;59.67;;;36.45;;
59876;SDS011;45749;51.140;17.184;2023-02-24T04:57:00;55.80;;;34.58;;
59876;SDS011;45749;51.140;17.184;2023-02-24T04:59:25;66.43;;;39.22;;
59876;SDS011;45749;51.140;17.184;2023-02-24T05:01:51;69.47;;;41.67;;
59876;SDS011;45749;51.140;17.184;2023-02-24T05:04:19;65.70;;;40.08;;
59876;SDS011;45749;51.140;17.184;2023-02-24T05:06:44;77.82;;;44.38;;
59876;SDS011;45749;51.140;17.184;2023-02-24T05:09:11;71.43;;;43.47;;
59876;SDS011;45749;51.140;17.184;2023-02-24T05:11:44;53.60;;;33.42;;
59876;SDS011;45749;51.140;17.184;2023-02-24T05:14:12;51.80;;;31.88;;
59876;SDS011;45749;51.140;17.184;2023-02-24T05:16:43;48.45;;;30.42;;
59876;SDS011;45749;51.140;17.184;2023-02-24T05:19:10;51.17;;;30.80;;
59876;SDS011;45749;51.140;17.184;2023-02-24T05:21:59;45.25;;;30.20;;
59876;SDS011;45749;51.140;17.184;2023-02-24T05:24:27;46.35;;;28.88;;
59876;SDS011;45749;51.140;17.184;2023-02-24T05:26:54;46.97;;;29.08;;
59876;SDS011;45749;51.140;17.184;2023-02-24T05:29:26;45.58;;;28.08;;
59876;SDS011;45749;51.140;17.184;2023-02-24T05:31:54;47.05;;;30.60;;
59876;SDS011;45749;51.140;17.184;2023-02-24T05:34:26;44.95;;;27.38;;
59876;SDS011;45749;51.140;17.184;2023-02-24T05:36:54;40.97;;;25.75;;
59876;SDS011;45749;51.140;17.184;2023-02-24T05:39:21;45.60;;;28.75;;
59876;SDS011;45749;51.140;17.184;2023-02-24T05:41:47;41.55;;;27.63;;
59876;SDS011;45749;51.140;17.184;2023-02-24T05:44:17;43.85;;;27.90;;
59876;SDS011;45749;51.140;17.184;2023-02-24T05:46:54;47.90;;;26.25;;
59876;SDS011;45749;51.140;17.184;2023-02-24T05:51:56;41.25;;;26.23;;
59876;SDS011;45749;51.140;17.184;2023-02-24T05:54:26;37.63;;;24.92;;
59876;SDS011;45749;51.140;17.184;2023-02-24T05:57:00;40.13;;;27.58;;
59876;SDS011;45749;51.140;17.184;2023-02-24T05:59:28;39.35;;;26.55;;
59876;SDS011;45749;51.140;17.184;2023-02-24T06:01:57;40.22;;;25.55;;
59876;SDS011;45749;51.140;17.184;2023-02-24T06:04:34;42.28;;;26.92;;
59876;SDS011;45749;51.140;17.184;2023-02-24T06:07:23;44.65;;;27.55;;
59876;SDS011;45749;51.140;17.184;2023-02-24T06:09:54;36.60;;;24.00;;
59876;SDS011;45749;51.140;17.184;2023-02-24T06:12:22;38.47;;;25.00;;
59876;SDS011;45749;51.140;17.184;2023-02-24T06:14:52;38.95;;;25.02;;
59876;SDS011;45749;51.140;17.184;2023-02-24T06:17:18;37.42;;;25.35;;
59876;SDS011;45749;51.140;17.184;2023-02-24T06:19:45;35.40;;;21.77;;
59876;SDS011;45749;51.140;17.184;2023-02-24T06:22:14;31.23;;;21.15;;
59876;SDS011;45749;51.140;17.184;2023-02-24T06:24:43;32.00;;;17.53;;
59876;SDS011;45749;51.140;17.184;2023-02-24T06:27:12;27.65;;;17.10;;
59876;SDS011;45749;51.140;17.184;2023-02-24T06:29:45;24.98;;;15.18;;
59876;SDS011;45749;51.140;17.184;2023-02-24T06:32:16;23.65;;;15.60;;
59876;SDS011;45749;51.140;17.184;2023-02-24T06:34:42;25.23;;;16.67;;
59876;SDS011;45749;51.140;17.184;2023-02-24T06:37:09;23.38;;;15.07;;
59876;SDS011;45749;51.140;17.184;2023-02-24T06:39:37;27.55;;;17.13;;
59876;SDS011;45749;51.140;17.184;2023-02-24T06:42:03;30.65;;;18.70;;
59876;SDS011;45749;51.140;17.184;2023-02-24T06:44:32;27.17;;;18.08;;
59876;SDS011;45749;51.140;17.184;2023-02-24T06:46:59;29.02;;;18.10;;
59876;SDS011;45749;51.140;17.184;2023-02-24T06:49:26;30.40;;;17.60;;
59876;SDS011;45749;51.140;17.184;2023-02-24T06:51:52;28.67;;;16.80;;
59876;SDS011;45749;51.140;17.184;2023-02-24T06:54:19;29.52;;;18.15;;
59876;SDS011;45749;51.140;17.184;2023-02-24T06:56:48;41.92;;;20.90;;
59876;SDS011;45749;51.140;17.184;2023-02-24T06:59:14;28.60;;;18.52;;
59876;SDS011;45749;51.140;17.184;2023-02-24T07:01:46;34.45;;;20.85;;
59876;SDS011;45749;51.140;17.184;2023-02-24T07:04:14;28.30;;;17.98;;
59876;SDS011;45749;51.140;17.184;2023-02-24T07:06:41;36.15;;;20.55;;
59876;SDS011;45749;51.140;17.184;2023-02-24T07:09:09;30.77;;;20.13;;
59876;SDS011;45749;51.140;17.184;2023-02-24T07:11:40;34.08;;;19.75;;
59876;SDS011;45749;51.140;17.184;2023-02-24T07:14:08;31.65;;;19.40;;
59876;SDS011;45749;51.140;17.184;2023-02-24T07:16:35;30.55;;;17.75;;
59876;SDS011;45749;51.140;17.184;2023-02-24T07:19:05;30.75;;;19.35;;
59876;SDS011;45749;51.140;17.184;2023-02-24T07:21:36;28.17;;;18.15;;
59876;SDS011;45749;51.140;17.184;2023-02-24T07:24:12;27.35;;;17.13;;
59876;SDS011;45749;51.140;17.184;2023-02-24T07:26:44;27.65;;;15.77;;
59876;SDS011;45749;51.140;17.184;2023-02-24T07:29:15;24.27;;;14.88;;
59876;SDS011;45749;51.140;17.184;2023-02-24T07:31:42;24.25;;;14.50;;
59876;SDS011;45749;51.140;17.184;2023-02-24T07:34:07;30.05;;;16.25;;
59876;SDS011;45749;51.140;17.184;2023-02-24T07:36:33;27.20;;;17.20;;
59876;SDS011;45749;51.140;17.184;2023-02-24T07:39:13;28.50;;;17.05;;
59876;SDS011;45749;51.140;17.184;2023-02-24T07:41:40;25.85;;;16.33;;
59876;SDS011;45749;51.140;17.184;2023-02-24T07:44:11;29.85;;;17.48;;
59876;SDS011;45749;51.140;17.184;2023-02-24T07:46:38;25.38;;;14.30;;
59876;SDS011;45749;51.140;17.184;2023-02-24T07:49:03;26.10;;;14.45;;
59876;SDS011;45749;51.140;17.184;2023-02-24T07:51:33;28.67;;;15.70;;
59876;SDS011;45749;51.140;17.184;2023-02-24T07:53:59;25.70;;;15.65;;
59876;SDS011;45749;51.140;17.184;2023-02-24T07:56:27;26.52;;;14.65;;
59876;SDS011;45749;51.140;17.184;2023-02-24T07:58:58;27.55;;;16.27;;
59876;SDS011;45749;51.140;17.184;2023-02-24T08:01:32;25.58;;;14.30;;
59876;SDS011;45749;51.140;17.184;2023-02-24T08:04:03;22.38;;;13.73;;
59876;SDS011;45749;51.140;17.184;2023-02-24T08:06:33;22.58;;;13.25;;
59876;SDS011;45749;51.140;17.184;2023-02-24T08:09:03;28.30;;;14.48;;
59876;SDS011;45749;51.140;17.184;2023-02-24T08:11:53;23.45;;;12.75;;
59876;SDS011;45749;51.140;17.184;2023-02-24T08:14:21;22.23;;;12.98;;
59876;SDS011;45749;51.140;17.184;2023-02-24T08:16:48;22.30;;;13.00;;
59876;SDS011;45749;51.140;17.184;2023-02-24T08:19:23;23.45;;;11.82;;
59876;SDS011;45749;51.140;17.184;2023-02-24T08:22:06;26.35;;;13.85;;
59876;SDS011;45749;51.140;17.184;2023-02-24T08:24:50;24.90;;;14.68;;
59876;SDS011;45749;51.140;17.184;2023-02-24T08:27:23;24.17;;;12.88;;
59876;SDS011;45749;51.140;17.184;2023-02-24T08:29:54;32.55;;;13.80;;
59876;SDS011;45749;51.140;17.184;2023-02-24T08:35:04;24.75;;;13.63;;
59876;SDS011;45749;51.140;17.184;2023-02-24T08:37:39;23.83;;;13.35;;
59876;SDS011;45749;51.140;17.184;2023-02-24T08:40:12;29.30;;;14.25;;
59876;SDS011;45749;51.140;17.184;2023-02-24T08:42:56;38.88;;;20.83;;
59876;SDS011;45749;51.140;17.184;2023-02-24T08:45:30;25.10;;;13.23;;
59876;SDS011;45749;51.140;17.184;2023-02-24T08:47:57;25.40;;;14.80;;
59876;SDS011;45749;51.140;17.184;2023-02-24T08:50:27;29.02;;;17.40;;
59876;SDS011;45749;51.140;17.184;2023-02-24T08:52:58;32.85;;;19.88;;
59876;SDS011;45749;51.140;17.184;2023-02-24T08:55:25;29.30;;;15.63;;
59876;SDS011;45749;51.140;17.184;2023-02-24T08:57:57;28.30;;;15.40;;
59876;SDS011;45749;51.140;17.184;2023-02-24T09:00:26;39.28;;;18.83;;
59876;SDS011;45749;51.140;17.184;2023-02-24T09:03:12;29.70;;;17.00;;
59876;SDS011;45749;51.140;17.184;2023-02-24T09:05:54;28.25;;;14.93;;
59876;SDS011;45749;51.140;17.184;2023-02-24T09:08:24;30.63;;;15.82;;
59876;SDS011;45749;51.140;17.184;2023-02-24T09:10:56;27.02;;;15.63;;
59876;SDS011;45749;51.140;17.184;2023-02-24T09:13:23;26.05;;;14.05;;
59876;SDS011;45749;51.140;17.184;2023-02-24T09:15:57;31.63;;;15.93;;
59876;SDS011;45749;51.140;17.184;2023-02-24T09:18:23;23.85;;;14.75;;
59876;SDS011;45749;51.140;17.184;2023-02-24T09:20:54;22.95;;;13.55;;
59876;SDS011;45749;51.140;17.184;2023-02-24T09:23:41;27.50;;;15.10;;
59876;SDS011;45749;51.140;17.184;2023-02-24T09:26:12;29.83;;;16.52;;
59876;SDS011;45749;51.140;17.184;2023-02-24T09:28:39;24.73;;;14.90;;
59876;SDS011;45749;51.140;17.184;2023-02-24T09:31:18;29.33;;;20.38;;
59876;SDS011;45749;51.140;17.184;2023-02-24T09:33:48;26.65;;;15.85;;
59876;SDS011;45749;51.140;17.184;2023-02-24T09:36:18;41.22;;;22.15;;
59876;SDS011;45749;51.140;17.184;2023-02-24T09:38:52;26.45;;;13.63;;
59876;SDS011;45749;51.140;17.184;2023-02-24T09:44:00;20.77;;;12.10;;
59876;SDS011;45749;51.140;17.184;2023-02-24T09:46:40;18.80;;;11.93;;
59876;SDS011;45749;51.140;17.184;2023-02-24T09:49:19;22.30;;;11.80;;
59876;SDS011;45749;51.140;17.184;2023-02-24T09:51:48;21.85;;;11.82;;
59876;SDS011;45749;51.140;17.184;2023-02-24T09:54:26;18.73;;;10.80;;
59876;SDS011;45749;51.140;17.184;2023-02-24T09:59:42;17.73;;;10.00;;
59876;SDS011;45749;51.140;17.184;2023-02-24T10:02:35;18.13;;;10.10;;
59876;SDS011;45749;51.140;17.184;2023-02-24T10:05:12;19.98;;;12.20;;
59876;SDS011;45749;51.140;17.184;2023-02-24T10:07:48;19.85;;;12.48;;
59876;SDS011;45749;51.140;17.184;2023-02-24T10:10:19;20.83;;;11.05;;
59876;SDS011;45749;51.140;17.184;2023-02-24T10:13:06;18.08;;;10.85;;
59876;SDS011;45749;51.140;17.184;2023-02-24T10:15:37;17.85;;;10.70;;
59876;SDS011;45749;51.140;17.184;2023-02-24T10:20:57;15.15;;;8.07;;
59876;SDS011;45749;51.140;17.184;2023-02-24T10:24:01;9.68;;;6.13;;
59876;SDS011;45749;51.140;17.184;2023-02-24T10:26:34;11.57;;;6.65;;
59876;SDS011;45749;51.140;17.184;2023-02-24T10:32:10;11.43;;;6.32;;
59876;SDS011;45749;51.140;17.184;2023-02-24T10:34:58;13.43;;;8.88;;
59876;SDS011;45749;51.140;17.184;2023-02-24T10:37:25;11.45;;;7.47;;
59876;SDS011;45749;51.140;17.184;2023-02-24T10:40:10;10.05;;;6.00;;
59876;SDS011;45749;51.140;17.184;2023-02-24T10:42:48;11.73;;;7.03;;
59876;SDS011;45749;51.140;17.184;2023-02-24T10:47:54;10.57;;;6.15;;
59876;SDS011;45749;51.140;17.184;2023-02-24T10:52:51;9.82;;;5.63;;
59876;SDS011;45749;51.140;17.184;2023-02-24T10:55:29;12.40;;;6.47;;
59876;SDS011;45749;51.140;17.184;2023-02-24T11:00:52;9.38;;;5.63;;
59876;SDS011;45749;51.140;17.184;2023-02-24T11:03:36;9.55;;;4.78;;
59876;SDS011;45749;51.140;17.184;2023-02-24T11:06:25;9.48;;;5.45;;
59876;SDS011;45749;51.140;17.184;2023-02-24T11:09:04;11.25;;;5.55;;
59876;SDS011;45749;51.140;17.184;2023-02-24T11:11:44;9.45;;;4.35;;
59876;SDS011;45749;51.140;17.184;2023-02-24T11:14:29;7.82;;;4.57;;
59876;SDS011;45749;51.140;17.184;2023-02-24T11:17:21;6.72;;;3.88;;
59876;SDS011;45749;51.140;17.184;2023-02-24T11:19:59;8.35;;;4.70;;
59876;SDS011;45749;51.140;17.184;2023-02-24T11:22:36;7.40;;;4.50;;
59876;SDS011;45749;51.140;17.184;2023-02-24T11:25:09;7.85;;;5.85;;
59876;SDS011;45749;51.140;17.184;2023-02-24T11:27:41;8.63;;;5.30;;
59876;SDS011;45749;51.140;17.184;2023-02-24T11:36:23;9.10;;;4.78;;
59876;SDS011;45749;51.140;17.184;2023-02-24T11:41:59;17.38;;;8.38;;
59876;SDS011;45749;51.140;17.184;2023-02-24T11:47:09;15.40;;;9.00;;
59876;SDS011;45749;51.140;17.184;2023-02-24T11:49:52;12.00;;;8.02;;
59876;SDS011;45749;51.140;17.184;2023-02-24T11:52:31;12.07;;;8.23;;
59876;SDS011;45749;51.140;17.184;2023-02-24T11:55:01;8.57;;;5.60;;
59876;SDS011;45749;51.140;17.184;2023-02-24T11:57:43;9.38;;;5.93;;
59876;SDS011;45749;51.140;17.184;2023-02-24T12:05:35;9.05;;;6.30;;
59876;SDS011;45749;51.140;17.184;2023-02-24T12:10:35;13.85;;;7.22;;
59876;SDS011;45749;51.140;17.184;2023-02-24T12:15:43;13.75;;;9.65;;
59876;SDS011;45749;51.140;17.184;2023-02-24T12:20:45;13.60;;;9.30;;
59876;SDS011;45749;51.140;17.184;2023-02-24T12:23:16;15.07;;;8.98;;
59876;SDS011;45749;51.140;17.184;2023-02-24T12:29:00;11.13;;;9.32;;
59876;SDS011;45749;51.140;17.184;2023-02-24T12:45:50;23.58;;;15.32;;
59876;SDS011;45749;51.140;17.184;2023-02-24T12:51:07;25.55;;;15.20;;
59876;SDS011;45749;51.140;17.184;2023-02-24T12:59:21;19.20;;;11.90;;
59876;SDS011;45749;51.140;17.184;2023-02-24T13:07:23;11.60;;;8.25;;
59876;SDS011;45749;51.140;17.184;2023-02-24T13:10:07;14.65;;;8.73;;
59876;SDS011;45749;51.140;17.184;2023-02-24T13:15:32;11.45;;;9.05;;
59876;SDS011;45749;51.140;17.184;2023-02-24T13:17:57;10.00;;;7.88;;
59876;SDS011;45749;51.140;17.184;2023-02-24T13:20:24;9.15;;;7.57;;
59876;SDS011;45749;51.140;17.184;2023-02-24T13:22:52;13.35;;;8.75;;
59876;SDS011;45749;51.140;17.184;2023-02-24T13:25:18;13.45;;;8.82;;
59876;SDS011;45749;51.140;17.184;2023-02-24T13:27:55;10.25;;;7.10;;
59876;SDS011;45749;51.140;17.184;2023-02-24T13:33:06;13.40;;;7.88;;
59876;SDS011;45749;51.140;17.184;2023-02-24T13:35:47;9.73;;;8.00;;
59876;SDS011;45749;51.140;17.184;2023-02-24T13:41:04;6.90;;;5.28;;
59876;SDS011;45749;51.140;17.184;2023-02-24T13:43:31;8.77;;;6.15;;
59876;SDS011;45749;51.140;17.184;2023-02-24T13:46:02;10.77;;;7.25;;
59876;SDS011;45749;51.140;17.184;2023-02-24T13:48:46;15.80;;;11.20;;
59876;SDS011;45749;51.140;17.184;2023-02-24T13:54:17;7.82;;;5.38;;
59876;SDS011;45749;51.140;17.184;2023-02-24T14:04:35;9.55;;;5.78;;
59876;SDS011;45749;51.140;17.184;2023-02-24T14:07:10;7.97;;;5.30;;
59876;SDS011;45749;51.140;17.184;2023-02-24T14:09:42;11.07;;;5.85;;
59876;SDS011;45749;51.140;17.184;2023-02-24T14:12:22;10.65;;;4.65;;
59876;SDS011;45749;51.140;17.184;2023-02-24T14:14:49;9.55;;;6.65;;
59876;SDS011;45749;51.140;17.184;2023-02-24T14:17:20;12.52;;;6.30;;
59876;SDS011;45749;51.140;17.184;2023-02-24T14:22:45;6.18;;;4.32;;
59876;SDS011;45749;51.140;17.184;2023-02-24T14:25:13;10.48;;;4.93;;
59876;SDS011;45749;51.140;17.184;2023-02-24T14:27:41;6.55;;;4.43;;
59876;SDS011;45749;51.140;17.184;2023-02-24T14:30:26;5.38;;;3.60;;
59876;SDS011;45749;51.140;17.184;2023-02-24T14:32:55;11.63;;;6.45;;
59876;SDS011;45749;51.140;17.184;2023-02-24T14:37:52;29.00;;;13.25;;
59876;SDS011;45749;51.140;17.184;2023-02-24T14:40:18;13.02;;;7.82;;
59876;SDS011;45749;51.140;17.184;2023-02-24T14:42:47;8.95;;;6.55;;
59876;SDS011;45749;51.140;17.184;2023-02-24T14:45:18;11.30;;;8.43;;
59876;SDS011;45749;51.140;17.184;2023-02-24T14:47:46;10.45;;;6.82;;
59876;SDS011;45749;51.140;17.184;2023-02-24T14:50:16;12.63;;;7.07;;
59876;SDS011;45749;51.140;17.184;2023-02-24T14:55:21;10.43;;;6.83;;
59876;SDS011;45749;51.140;17.184;2023-02-24T15:00:26;12.00;;;10.27;;
59876;SDS011;45749;51.140;17.184;2023-02-24T15:05:30;14.35;;;7.22;;
59876;SDS011;45749;51.140;17.184;2023-02-24T15:07:56;11.00;;;7.53;;
59876;SDS011;45749;51.140;17.184;2023-02-24T15:10:24;5.57;;;3.30;;
59876;SDS011;45749;51.140;17.184;2023-02-24T15:13:15;14.80;;;8.68;;
59876;SDS011;45749;51.140;17.184;2023-02-24T15:15:46;68.78;;;30.48;;
59876;SDS011;45749;51.140;17.184;2023-02-24T15:18:16;11.70;;;6.00;;
59876;SDS011;45749;51.140;17.184;2023-02-24T15:21:03;8.45;;;4.55;;
59876;SDS011;45749;51.140;17.184;2023-02-24T15:23:31;10.73;;;5.35;;
59876;SDS011;45749;51.140;17.184;2023-02-24T15:25:59;8.85;;;4.03;;
59876;SDS011;45749;51.140;17.184;2023-02-24T15:28:29;13.23;;;7.70;;
59876;SDS011;45749;51.140;17.184;2023-02-24T15:33:42;8.10;;;3.92;;
59876;SDS011;45749;51.140;17.184;2023-02-24T15:36:25;9.15;;;5.43;;
59876;SDS011;45749;51.140;17.184;2023-02-24T15:38:59;9.90;;;4.60;;
59876;SDS011;45749;51.140;17.184;2023-02-24T15:41:40;10.65;;;7.07;;
59876;SDS011;45749;51.140;17.184;2023-02-24T15:46:56;11.27;;;8.98;;
59876;SDS011;45749;51.140;17.184;2023-02-24T15:49:23;9.98;;;8.70;;
59876;SDS011;45749;51.140;17.184;2023-02-24T15:51:49;16.38;;;10.50;;
59876;SDS011;45749;51.140;17.184;2023-02-24T15:54:23;9.68;;;7.72;;
59876;SDS011;45749;51.140;17.184;2023-02-24T15:56:55;11.48;;;6.90;;
59876;SDS011;45749;51.140;17.184;2023-02-24T15:59:23;10.23;;;7.28;;
59876;SDS011;45749;51.140;17.184;2023-02-24T16:01:48;8.55;;;6.88;;
59876;SDS011;45749;51.140;17.184;2023-02-24T16:04:16;8.43;;;5.63;;
59876;SDS011;45749;51.140;17.184;2023-02-24T16:06:43;9.25;;;5.80;;
59876;SDS011;45749;51.140;17.184;2023-02-24T16:09:18;9.80;;;6.18;;
59876;SDS011;45749;51.140;17.184;2023-02-24T16:12:01;7.72;;;6.93;;
59876;SDS011;45749;51.140;17.184;2023-02-24T16:14:28;10.30;;;7.30;;
59876;SDS011;45749;51.140;17.184;2023-02-24T16:16:54;10.90;;;9.40;;
59876;SDS011;45749;51.140;17.184;2023-02-24T16:19:20;9.52;;;6.55;;
59876;SDS011;45749;51.140;17.184;2023-02-24T16:21:45;10.85;;;6.35;;
59876;SDS011;45749;51.140;17.184;2023-02-24T16:24:12;9.60;;;6.95;;
59876;SDS011;45749;51.140;17.184;2023-02-24T16:26:38;13.38;;;8.43;;
59876;SDS011;45749;51.140;17.184;2023-02-24T16:29:04;13.70;;;10.63;;
59876;SDS011;45749;51.140;17.184;2023-02-24T16:31:36;16.10;;;10.80;;
59876;SDS011;45749;51.140;17.184;2023-02-24T16:34:03;14.95;;;10.15;;
59876;SDS011;45749;51.140;17.184;2023-02-24T16:36:29;13.90;;;9.98;;
59876;SDS011;45749;51.140;17.184;2023-02-24T16:38:55;18.92;;;13.48;;
59876;SDS011;45749;51.140;17.184;2023-02-24T16:41:21;14.02;;;10.88;;
59876;SDS011;45749;51.140;17.184;2023-02-24T16:43:48;15.98;;;12.25;;
59876;SDS011;45749;51.140;17.184;2023-02-24T16:46:20;11.32;;;7.88;;
59876;SDS011;45749;51.140;17.184;2023-02-24T16:48:47;10.43;;;8.30;;
59876;SDS011;45749;51.140;17.184;2023-02-24T16:51:14;18.50;;;10.52;;
59876;SDS011;45749;51.140;17.184;2023-02-24T16:53:40;14.75;;;10.23;;
59876;SDS011;45749;51.140;17.184;2023-02-24T16:56:07;14.63;;;9.20;;
59876;SDS011;45749;51.140;17.184;2023-02-24T16:58:33;55.17;;;39.28;;
59876;SDS011;45749;51.140;17.184;2023-02-24T17:00:59;65.80;;;47.45;;
59876;SDS011;45749;51.140;17.184;2023-02-24T17:06:07;27.85;;;17.58;;
59876;SDS011;45749;51.140;17.184;2023-02-24T17:08:33;24.35;;;16.25;;
59876;SDS011;45749;51.140;17.184;2023-02-24T17:10:58;27.38;;;17.77;;
59876;SDS011;45749;51.140;17.184;2023-02-24T17:13:24;42.72;;;20.80;;
59876;SDS011;45749;51.140;17.184;2023-02-24T17:15:50;63.10;;;33.92;;
59876;SDS011;45749;51.140;17.184;2023-02-24T17:18:21;43.30;;;27.40;;
59876;SDS011;45749;51.140;17.184;2023-02-24T17:20:50;21.90;;;14.65;;